This is the latest recevied weather packets stored in our database for station/object AJ1L. If no packets are shown the sender has not sent any weather packets the latest 10 day(s).
| Time | Temp. | Humidity | Pressure | Rain* | Wind** | Luminosity | Snow |
|---|---|---|---|---|---|---|---|
| 1778191040 | 17.78° C | 31% | 1004.9 hPa | 0 mm | - | - | - |
| 1778190042 | 17.78° C | 32% | 1004.8 hPa | 0 mm | - | - | - |
| 1778189041 | 17.22° C | 30% | 1004.7 hPa | 0 mm | - | - | - |
| 1778187040 | 17.78° C | 29% | 1004.6 hPa | 0 mm | - | - | - |
| 1778186039 | 17.78° C | 30% | 1004.5 hPa | 0 mm | - | - | - |
| 1778185041 | 18.33° C | 28% | 1004.6 hPa | 0 mm | - | - | - |
| 1778184041 | 17.78° C | 28% | 1004.6 hPa | 0 mm | - | - | - |
| 1778183039 | 17.78° C | 32% | 1004.8 hPa | 0 mm | - | - | - |
| 1778181044 | 17.22° C | 34% | 1005 hPa | 0 mm | - | - | - |
| 1778180039 | 18.33° C | 36% | 1005.3 hPa | 0 mm | - | - | - |
| 1778179040 | 17.78° C | 36% | 1005.5 hPa | 0 mm | - | - | - |
| 1778178040 | 17.78° C | 37% | 1005.6 hPa | 0 mm | - | - | - |
| 1778177039 | 17.78° C | 38% | 1005.7 hPa | 0 mm | - | - | - |
| 1778175039 | 17.78° C | 44% | 1005.7 hPa | 0 mm | - | - | - |
| 1778174039 | 16.67° C | 47% | 1006 hPa | 0 mm | - | - | - |
| 1778173042 | 16.67° C | 51% | 1006.1 hPa | 0 mm | - | - | - |
| 1778172039 | 16.67° C | 53% | 1006.3 hPa | 0 mm | - | - | - |
| 1778171039 | 15.56° C | 56% | 1006.5 hPa | 0 mm | - | - | - |
| 1778170039 | 15.56° C | 56% | 1006.7 hPa | 0 mm | - | - | - |
| 1778168046 | 15.56° C | 57% | 1007.1 hPa | 0 mm | - | - | - |
| 1778167039 | 15.56° C | 56% | 1007.2 hPa | 0 mm | - | - | - |
| 1778165039 | 13.89° C | 67% | 1007.4 hPa | 0 mm | - | - | - |
| 1778163039 | 13.33° C | 70% | 1007.6 hPa | 0 mm | - | - | - |
| 1778162040 | 12.22° C | 79% | 1007.5 hPa | 0 mm | - | - | - |
| 1778160040 | 10.56° C | 91% | 1007.7 hPa | 0 mm | - | - | - |
* Rain latest hour (hover to see other rain measurements)
** Current wind speed in m/s (hover to see current wind gust speed)